sensor_id;sensor_type;location;lat;lon;timestamp;pressure;altitude;pressure_sealevel;temperature;humidity
48027;BME280;50714;49.208;5.364;2023-05-02T00:00:24;99803.19;;;10.07;72.30
48027;BME280;50714;49.208;5.364;2023-05-02T00:10:24;99819.00;;;9.88;71.85
48027;BME280;50714;49.208;5.364;2023-05-02T00:20:25;99805.16;;;9.77;71.38
48027;BME280;50714;49.208;5.364;2023-05-02T00:30:25;99802.78;;;9.67;72.90
48027;BME280;50714;49.208;5.364;2023-05-02T00:40:25;99794.53;;;9.54;73.69
48027;BME280;50714;49.208;5.364;2023-05-02T00:50:27;99780.78;;;9.49;73.02
48027;BME280;50714;49.208;5.364;2023-05-02T01:11:27;99805.72;;;9.21;75.40
48027;BME280;50714;49.208;5.364;2023-05-02T01:21:32;99812.13;;;9.06;73.24
48027;BME280;50714;49.208;5.364;2023-05-02T01:31:34;99821.06;;;8.92;73.27
48027;BME280;50714;49.208;5.364;2023-05-02T01:41:36;99835.78;;;8.81;74.63
48027;BME280;50714;49.208;5.364;2023-05-02T01:51:48;99842.31;;;8.86;74.74
48027;BME280;50714;49.208;5.364;2023-05-02T02:01:50;99852.41;;;8.70;73.71
48027;BME280;50714;49.208;5.364;2023-05-02T02:12:11;99866.41;;;8.65;75.04
48027;BME280;50714;49.208;5.364;2023-05-02T02:22:13;99878.84;;;8.43;73.56
48027;BME280;50714;49.208;5.364;2023-05-02T02:32:16;99890.00;;;8.32;73.93
48027;BME280;50714;49.208;5.364;2023-05-02T02:42:41;99887.19;;;8.26;76.88
48027;BME280;50714;49.208;5.364;2023-05-02T02:52:55;99901.84;;;8.23;76.20
48027;BME280;50714;49.208;5.364;2023-05-02T03:02:59;99914.31;;;8.16;74.92
48027;BME280;50714;49.208;5.364;2023-05-02T03:12:59;99904.22;;;8.18;75.22
48027;BME280;50714;49.208;5.364;2023-05-02T03:23:00;99913.47;;;8.15;76.53
48027;BME280;50714;49.208;5.364;2023-05-02T03:33:00;99915.94;;;8.25;77.28
48027;BME280;50714;49.208;5.364;2023-05-02T03:43:03;99921.75;;;8.29;78.20
48027;BME280;50714;49.208;5.364;2023-05-02T03:53:04;99938.69;;;8.45;78.61
48027;BME280;50714;49.208;5.364;2023-05-02T04:03:04;99953.16;;;8.44;78.67
48027;BME280;50714;49.208;5.364;2023-05-02T04:13:05;99949.63;;;8.44;80.63
48027;BME280;50714;49.208;5.364;2023-05-02T04:23:05;99949.44;;;8.45;81.61
48027;BME280;50714;49.208;5.364;2023-05-02T04:33:05;99953.25;;;8.51;82.07
48027;BME280;50714;49.208;5.364;2023-05-02T04:43:06;99963.91;;;8.67;82.50
48027;BME280;50714;49.208;5.364;2023-05-02T04:53:06;99970.63;;;8.71;84.22
48027;BME280;50714;49.208;5.364;2023-05-02T05:03:07;99979.03;;;8.68;84.94
48027;BME280;50714;49.208;5.364;2023-05-02T05:13:07;99991.31;;;8.71;86.26
48027;BME280;50714;49.208;5.364;2023-05-02T05:23:07;100002.94;;;8.86;86.23
48027;BME280;50714;49.208;5.364;2023-05-02T05:33:08;100021.31;;;9.05;86.63
48027;BME280;50714;49.208;5.364;2023-05-02T05:43:08;100023.56;;;9.16;87.66
48027;BME280;50714;49.208;5.364;2023-05-02T05:53:08;100042.28;;;9.33;86.16
48027;BME280;50714;49.208;5.364;2023-05-02T06:03:09;100049.94;;;9.58;85.87
48027;BME280;50714;49.208;5.364;2023-05-02T06:13:09;100061.88;;;9.79;85.47
48027;BME280;50714;49.208;5.364;2023-05-02T06:23:09;100079.34;;;9.98;84.75
48027;BME280;50714;49.208;5.364;2023-05-02T06:33:10;100097.41;;;10.12;84.33
48027;BME280;50714;49.208;5.364;2023-05-02T06:43:11;100089.91;;;10.37;84.87
48027;BME280;50714;49.208;5.364;2023-05-02T06:53:12;100099.03;;;10.86;84.11
48027;BME280;50714;49.208;5.364;2023-05-02T07:03:13;100121.97;;;11.33;82.89
48027;BME280;50714;49.208;5.364;2023-05-02T07:13:13;100136.97;;;11.78;82.50
48027;BME280;50714;49.208;5.364;2023-05-02T07:23:13;100130.94;;;12.04;81.88
48027;BME280;50714;49.208;5.364;2023-05-02T07:33:14;100124.03;;;13.51;82.22
48027;BME280;50714;49.208;5.364;2023-05-02T07:43:14;100121.06;;;14.96;76.99
48027;BME280;50714;49.208;5.364;2023-05-02T07:53:15;100126.44;;;15.79;72.96
48027;BME280;50714;49.208;5.364;2023-05-02T08:03:15;100132.53;;;15.99;69.60
48027;BME280;50714;49.208;5.364;2023-05-02T08:13:16;100139.69;;;16.19;71.57
48027;BME280;50714;49.208;5.364;2023-05-02T08:23:16;100145.09;;;17.47;71.64
48027;BME280;50714;49.208;5.364;2023-05-02T08:33:17;100151.63;;;18.46;63.97
48027;BME280;50714;49.208;5.364;2023-05-02T08:43:17;100158.00;;;17.39;64.72
48027;BME280;50714;49.208;5.364;2023-05-02T08:53:18;100172.03;;;16.95;64.75
48027;BME280;50714;49.208;5.364;2023-05-02T09:03:29;100172.50;;;19.38;61.31
48027;BME280;50714;49.208;5.364;2023-05-02T09:13:37;100171.78;;;23.18;55.92
48027;BME280;50714;49.208;5.364;2023-05-02T09:33:39;100187.81;;;20.63;53.06
48027;BME280;50714;49.208;5.364;2023-05-02T09:43:40;100190.75;;;19.33;54.86
48027;BME280;50714;49.208;5.364;2023-05-02T09:53:42;100193.09;;;19.01;56.69
48027;BME280;50714;49.208;5.364;2023-05-02T10:03:47;100193.22;;;20.25;53.44
48027;BME280;50714;49.208;5.364;2023-05-02T10:13:48;100207.16;;;19.90;54.35
48027;BME280;50714;49.208;5.364;2023-05-02T10:23:48;100207.88;;;20.86;52.59
48027;BME280;50714;49.208;5.364;2023-05-02T10:33:54;100190.41;;;20.53;51.67
48027;BME280;50714;49.208;5.364;2023-05-02T10:43:56;100189.03;;;21.87;53.66
48027;BME280;50714;49.208;5.364;2023-05-02T11:04:21;100179.50;;;22.68;48.85
48027;BME280;50714;49.208;5.364;2023-05-02T11:24:41;100172.47;;;25.96;36.80
48027;BME280;50714;49.208;5.364;2023-05-02T11:34:42;100171.47;;;24.32;42.50
48027;BME280;50714;49.208;5.364;2023-05-02T11:44:59;100171.41;;;21.56;42.98
48027;BME280;50714;49.208;5.364;2023-05-02T11:55:00;100165.59;;;24.69;43.01
48027;BME280;50714;49.208;5.364;2023-05-02T12:05:01;100158.97;;;22.81;42.79
48027;BME280;50714;49.208;5.364;2023-05-02T12:15:06;100160.22;;;23.16;42.07
48027;BME280;50714;49.208;5.364;2023-05-02T12:25:07;100167.84;;;22.98;44.11
48027;BME280;50714;49.208;5.364;2023-05-02T12:35:20;100182.00;;;21.96;42.29
48027;BME280;50714;49.208;5.364;2023-05-02T12:45:20;100181.59;;;21.33;45.66
48027;BME280;50714;49.208;5.364;2023-05-02T12:55:22;100188.03;;;20.79;45.62
48027;BME280;50714;49.208;5.364;2023-05-02T13:05:24;100180.94;;;20.44;45.90
48027;BME280;50714;49.208;5.364;2023-05-02T13:15:25;100186.91;;;20.24;46.09
48027;BME280;50714;49.208;5.364;2023-05-02T13:25:25;100187.66;;;20.20;46.26
48027;BME280;50714;49.208;5.364;2023-05-02T13:35:26;100182.94;;;19.98;46.66
48027;BME280;50714;49.208;5.364;2023-05-02T13:45:26;100173.63;;;20.16;45.02
48027;BME280;50714;49.208;5.364;2023-05-02T13:55:26;100173.28;;;20.13;45.85
48027;BME280;50714;49.208;5.364;2023-05-02T14:05:27;100175.38;;;20.05;44.35
48027;BME280;50714;49.208;5.364;2023-05-02T14:15:27;100174.47;;;19.26;43.70
48027;BME280;50714;49.208;5.364;2023-05-02T14:25:28;100178.50;;;19.24;44.46
48027;BME280;50714;49.208;5.364;2023-05-02T14:35:28;100175.44;;;19.49;44.88
48027;BME280;50714;49.208;5.364;2023-05-02T14:45:28;100178.38;;;19.30;44.61
48027;BME280;50714;49.208;5.364;2023-05-02T14:55:29;100166.38;;;18.80;44.96
48027;BME280;50714;49.208;5.364;2023-05-02T15:05:30;100166.63;;;18.55;44.48
48027;BME280;50714;49.208;5.364;2023-05-02T15:15:31;100171.13;;;18.49;44.79
48027;BME280;50714;49.208;5.364;2023-05-02T15:25:31;100171.97;;;18.26;42.98
48027;BME280;50714;49.208;5.364;2023-05-02T15:35:31;100177.91;;;18.12;43.68
48027;BME280;50714;49.208;5.364;2023-05-02T15:45:32;100175.41;;;18.10;45.08
48027;BME280;50714;49.208;5.364;2023-05-02T15:55:33;100170.44;;;18.19;46.03
48027;BME280;50714;49.208;5.364;2023-05-02T16:05:35;100165.06;;;17.89;44.91
48027;BME280;50714;49.208;5.364;2023-05-02T16:15:36;100153.38;;;17.70;44.94
48027;BME280;50714;49.208;5.364;2023-05-02T16:25:36;100162.53;;;17.46;44.14
48027;BME280;50714;49.208;5.364;2023-05-02T16:35:37;100167.97;;;17.16;45.29
48027;BME280;50714;49.208;5.364;2023-05-02T16:45:37;100169.19;;;17.01;45.17
48027;BME280;50714;49.208;5.364;2023-05-02T16:55:37;100175.44;;;16.90;45.88
48027;BME280;50714;49.208;5.364;2023-05-02T17:05:38;100179.28;;;16.83;46.36
48027;BME280;50714;49.208;5.364;2023-05-02T17:15:38;100177.00;;;16.80;46.17
48027;BME280;50714;49.208;5.364;2023-05-02T17:25:39;100184.66;;;16.71;46.30
48027;BME280;50714;49.208;5.364;2023-05-02T17:35:40;100188.31;;;16.58;45.88
48027;BME280;50714;49.208;5.364;2023-05-02T17:45:41;100182.19;;;16.45;45.96
48027;BME280;50714;49.208;5.364;2023-05-02T17:55:41;100179.22;;;16.28;46.69
48027;BME280;50714;49.208;5.364;2023-05-02T18:05:42;100190.22;;;16.15;46.94
48027;BME280;50714;49.208;5.364;2023-05-02T18:15:43;100208.78;;;15.99;47.58
48027;BME280;50714;49.208;5.364;2023-05-02T18:25:43;100207.03;;;15.80;47.67
48027;BME280;50714;49.208;5.364;2023-05-02T18:35:44;100225.59;;;15.58;48.22
48027;BME280;50714;49.208;5.364;2023-05-02T18:45:47;100223.13;;;15.44;48.50
48027;BME280;50714;49.208;5.364;2023-05-02T18:55:48;100225.94;;;15.24;48.84
48027;BME280;50714;49.208;5.364;2023-05-02T19:05:48;100232.50;;;15.03;49.55
48027;BME280;50714;49.208;5.364;2023-05-02T19:15:50;100246.56;;;14.80;49.81
48027;BME280;50714;49.208;5.364;2023-05-02T19:25:50;100249.97;;;14.62;50.17
48027;BME280;50714;49.208;5.364;2023-05-02T19:35:51;100259.34;;;14.40;50.51
48027;BME280;50714;49.208;5.364;2023-05-02T19:45:53;100269.78;;;14.10;50.89
48027;BME280;50714;49.208;5.364;2023-05-02T19:55:53;100282.25;;;13.85;51.39
48027;BME280;50714;49.208;5.364;2023-05-02T20:05:53;100301.00;;;13.67;51.58
48027;BME280;50714;49.208;5.364;2023-05-02T20:15:56;100315.50;;;13.39;52.25
48027;BME280;50714;49.208;5.364;2023-05-02T20:25:56;100316.50;;;12.97;52.74
48027;BME280;50714;49.208;5.364;2023-05-02T20:35:57;100318.94;;;12.92;52.88
48027;BME280;50714;49.208;5.364;2023-05-02T20:45:57;100333.13;;;12.94;52.70
48027;BME280;50714;49.208;5.364;2023-05-02T20:55:57;100344.13;;;12.86;53.22
48027;BME280;50714;49.208;5.364;2023-05-02T21:05:58;100324.31;;;12.57;54.00
48027;BME280;50714;49.208;5.364;2023-05-02T21:15:58;100323.50;;;12.36;54.76
48027;BME280;50714;49.208;5.364;2023-05-02T21:25:59;100331.63;;;12.14;54.53
48027;BME280;50714;49.208;5.364;2023-05-02T21:35:59;100334.31;;;11.93;55.54
48027;BME280;50714;49.208;5.364;2023-05-02T21:46:00;100344.34;;;11.63;56.12
48027;BME280;50714;49.208;5.364;2023-05-02T21:56:00;100348.75;;;11.49;56.40
48027;BME280;50714;49.208;5.364;2023-05-02T22:06:01;100350.38;;;11.29;56.71
48027;BME280;50714;49.208;5.364;2023-05-02T22:16:05;100356.13;;;11.11;57.15
48027;BME280;50714;49.208;5.364;2023-05-02T22:26:05;100364.50;;;11.02;57.40
48027;BME280;50714;49.208;5.364;2023-05-02T22:36:06;100376.78;;;10.89;57.72
48027;BME280;50714;49.208;5.364;2023-05-02T22:46:06;100375.09;;;10.88;57.83
48027;BME280;50714;49.208;5.364;2023-05-02T22:56:07;100364.78;;;10.92;58.06
48027;BME280;50714;49.208;5.364;2023-05-02T23:06:07;100363.00;;;10.99;58.06
48027;BME280;50714;49.208;5.364;2023-05-02T23:16:08;100357.50;;;10.92;57.98
48027;BME280;50714;49.208;5.364;2023-05-02T23:26:09;100349.50;;;10.84;58.45
48027;BME280;50714;49.208;5.364;2023-05-02T23:36:09;100347.50;;;10.64;59.09
48027;BME280;50714;49.208;5.364;2023-05-02T23:46:10;100337.50;;;10.49;59.96
48027;BME280;50714;49.208;5.364;2023-05-02T23:56:10;100345.09;;;10.31;59.57
